sensor_id;sensor_type;location;lat;lon;timestamp;temperature;humidity
33715;DHT22;20043;50.998;4.754;2023-06-22T00:00:42;22.40;99.90
33715;DHT22;20043;50.998;4.754;2023-06-22T00:03:09;22.40;99.90
33715;DHT22;20043;50.998;4.754;2023-06-22T00:05:34;22.40;99.90
33715;DHT22;20043;50.998;4.754;2023-06-22T00:08:03;22.30;99.90
33715;DHT22;20043;50.998;4.754;2023-06-22T00:10:29;22.20;99.90
33715;DHT22;20043;50.998;4.754;2023-06-22T00:12:55;22.20;99.90
33715;DHT22;20043;50.998;4.754;2023-06-22T00:15:20;22.20;99.90
33715;DHT22;20043;50.998;4.754;2023-06-22T00:17:46;22.20;99.90
33715;DHT22;20043;50.998;4.754;2023-06-22T00:20:12;22.20;99.90
33715;DHT22;20043;50.998;4.754;2023-06-22T00:22:37;22.20;99.90
33715;DHT22;20043;50.998;4.754;2023-06-22T00:25:06;22.20;99.90
33715;DHT22;20043;50.998;4.754;2023-06-22T00:27:32;22.10;99.90
33715;DHT22;20043;50.998;4.754;2023-06-22T00:29:58;22.10;99.90
33715;DHT22;20043;50.998;4.754;2023-06-22T00:32:23;22.10;99.90
33715;DHT22;20043;50.998;4.754;2023-06-22T00:34:49;22.00;99.90
33715;DHT22;20043;50.998;4.754;2023-06-22T00:37:15;21.80;99.90
33715;DHT22;20043;50.998;4.754;2023-06-22T00:39:44;21.80;99.90
33715;DHT22;20043;50.998;4.754;2023-06-22T00:42:10;21.90;99.90
33715;DHT22;20043;50.998;4.754;2023-06-22T00:44:36;21.90;99.90
33715;DHT22;20043;50.998;4.754;2023-06-22T00:47:03;21.90;99.90
33715;DHT22;20043;50.998;4.754;2023-06-22T00:49:28;21.80;99.90
33715;DHT22;20043;50.998;4.754;2023-06-22T00:51:55;21.50;99.90
33715;DHT22;20043;50.998;4.754;2023-06-22T00:54:21;21.50;99.90
33715;DHT22;20043;50.998;4.754;2023-06-22T00:56:52;21.50;99.90
33715;DHT22;20043;50.998;4.754;2023-06-22T00:59:20;21.70;99.90
33715;DHT22;20043;50.998;4.754;2023-06-22T01:01:46;21.80;99.90
33715;DHT22;20043;50.998;4.754;2023-06-22T01:04:12;21.80;99.90
33715;DHT22;20043;50.998;4.754;2023-06-22T01:06:45;21.90;99.90
33715;DHT22;20043;50.998;4.754;2023-06-22T01:09:15;21.90;99.90
33715;DHT22;20043;50.998;4.754;2023-06-22T01:11:54;22.00;99.90
33715;DHT22;20043;50.998;4.754;2023-06-22T01:14:23;22.00;99.90
33715;DHT22;20043;50.998;4.754;2023-06-22T01:16:51;22.10;99.90
33715;DHT22;20043;50.998;4.754;2023-06-22T01:19:29;22.10;99.90
33715;DHT22;20043;50.998;4.754;2023-06-22T01:22:01;22.00;99.90
33715;DHT22;20043;50.998;4.754;2023-06-22T01:27:33;22.10;99.90
33715;DHT22;20043;50.998;4.754;2023-06-22T01:30:03;22.30;99.90
33715;DHT22;20043;50.998;4.754;2023-06-22T01:32:33;22.30;99.90
33715;DHT22;20043;50.998;4.754;2023-06-22T01:35:01;22.00;99.90
33715;DHT22;20043;50.998;4.754;2023-06-22T01:37:29;21.80;99.90
33715;DHT22;20043;50.998;4.754;2023-06-22T01:39:57;21.80;99.90
33715;DHT22;20043;50.998;4.754;2023-06-22T01:42:24;21.90;99.90
33715;DHT22;20043;50.998;4.754;2023-06-22T01:44:52;22.00;99.90
33715;DHT22;20043;50.998;4.754;2023-06-22T01:47:18;21.90;99.90
33715;DHT22;20043;50.998;4.754;2023-06-22T01:49:45;21.80;99.90
33715;DHT22;20043;50.998;4.754;2023-06-22T01:52:11;21.60;99.90
33715;DHT22;20043;50.998;4.754;2023-06-22T01:54:38;21.50;99.90
33715;DHT22;20043;50.998;4.754;2023-06-22T01:57:04;21.50;99.90
33715;DHT22;20043;50.998;4.754;2023-06-22T01:59:36;21.50;99.90
33715;DHT22;20043;50.998;4.754;2023-06-22T02:02:10;21.40;99.90
33715;DHT22;20043;50.998;4.754;2023-06-22T02:05:14;21.40;99.90
33715;DHT22;20043;50.998;4.754;2023-06-22T02:07:56;21.40;99.90
33715;DHT22;20043;50.998;4.754;2023-06-22T02:10:26;21.40;99.90
33715;DHT22;20043;50.998;4.754;2023-06-22T02:12:54;21.40;99.90
33715;DHT22;20043;50.998;4.754;2023-06-22T02:15:20;21.20;99.90
33715;DHT22;20043;50.998;4.754;2023-06-22T02:17:47;21.20;99.90
33715;DHT22;20043;50.998;4.754;2023-06-22T02:20:14;21.20;99.90
33715;DHT22;20043;50.998;4.754;2023-06-22T02:22:40;21.20;99.90
33715;DHT22;20043;50.998;4.754;2023-06-22T02:25:06;21.10;99.90
33715;DHT22;20043;50.998;4.754;2023-06-22T02:27:32;21.00;99.90
33715;DHT22;20043;50.998;4.754;2023-06-22T02:29:57;21.00;99.90
33715;DHT22;20043;50.998;4.754;2023-06-22T02:32:23;21.00;99.90
33715;DHT22;20043;50.998;4.754;2023-06-22T02:34:55;21.00;99.90
33715;DHT22;20043;50.998;4.754;2023-06-22T02:37:21;20.90;99.90
33715;DHT22;20043;50.998;4.754;2023-06-22T02:39:50;20.70;99.90
33715;DHT22;20043;50.998;4.754;2023-06-22T02:42:16;20.70;99.90
33715;DHT22;20043;50.998;4.754;2023-06-22T02:44:45;20.70;99.90
33715;DHT22;20043;50.998;4.754;2023-06-22T02:47:11;20.50;99.90
33715;DHT22;20043;50.998;4.754;2023-06-22T02:49:37;20.50;99.90
33715;DHT22;20043;50.998;4.754;2023-06-22T02:52:02;20.60;99.90
33715;DHT22;20043;50.998;4.754;2023-06-22T02:54:28;20.60;99.90
33715;DHT22;20043;50.998;4.754;2023-06-22T02:56:53;20.60;99.90
33715;DHT22;20043;50.998;4.754;2023-06-22T02:59:19;20.30;99.90
33715;DHT22;20043;50.998;4.754;2023-06-22T03:01:49;20.40;99.90
33715;DHT22;20043;50.998;4.754;2023-06-22T03:04:15;20.20;99.90
33715;DHT22;20043;50.998;4.754;2023-06-22T03:06:41;20.20;99.90
33715;DHT22;20043;50.998;4.754;2023-06-22T03:09:07;20.10;99.90
33715;DHT22;20043;50.998;4.754;2023-06-22T03:11:33;20.20;99.90
33715;DHT22;20043;50.998;4.754;2023-06-22T03:14:00;20.20;99.90
33715;DHT22;20043;50.998;4.754;2023-06-22T03:16:26;20.30;99.90
33715;DHT22;20043;50.998;4.754;2023-06-22T03:18:52;20.20;99.90
33715;DHT22;20043;50.998;4.754;2023-06-22T03:21:19;20.20;99.90
33715;DHT22;20043;50.998;4.754;2023-06-22T03:23:45;20.20;99.90
33715;DHT22;20043;50.998;4.754;2023-06-22T03:26:10;20.30;99.90
33715;DHT22;20043;50.998;4.754;2023-06-22T03:28:37;20.30;99.90
33715;DHT22;20043;50.998;4.754;2023-06-22T03:31:03;20.40;99.90
33715;DHT22;20043;50.998;4.754;2023-06-22T03:33:29;20.50;99.90
33715;DHT22;20043;50.998;4.754;2023-06-22T03:35:55;20.70;99.90
33715;DHT22;20043;50.998;4.754;2023-06-22T03:38:20;20.80;99.90
33715;DHT22;20043;50.998;4.754;2023-06-22T03:40:46;20.70;99.90
33715;DHT22;20043;50.998;4.754;2023-06-22T03:43:12;20.60;99.90
33715;DHT22;20043;50.998;4.754;2023-06-22T03:45:37;20.60;99.90
33715;DHT22;20043;50.998;4.754;2023-06-22T03:48:03;20.50;99.90
33715;DHT22;20043;50.998;4.754;2023-06-22T03:50:28;20.50;99.90
33715;DHT22;20043;50.998;4.754;2023-06-22T03:52:55;20.40;99.90
33715;DHT22;20043;50.998;4.754;2023-06-22T03:55:21;20.40;99.90
33715;DHT22;20043;50.998;4.754;2023-06-22T03:57:46;20.50;99.90
33715;DHT22;20043;50.998;4.754;2023-06-22T04:00:12;20.60;99.90
33715;DHT22;20043;50.998;4.754;2023-06-22T04:02:38;20.70;99.90
33715;DHT22;20043;50.998;4.754;2023-06-22T04:05:04;20.70;99.90
33715;DHT22;20043;50.998;4.754;2023-06-22T04:07:30;20.80;99.90
33715;DHT22;20043;50.998;4.754;2023-06-22T04:09:56;20.80;99.90
33715;DHT22;20043;50.998;4.754;2023-06-22T04:12:21;20.90;99.90
33715;DHT22;20043;50.998;4.754;2023-06-22T04:14:47;20.90;99.90
33715;DHT22;20043;50.998;4.754;2023-06-22T04:17:12;20.90;99.90
33715;DHT22;20043;50.998;4.754;2023-06-22T04:19:40;20.90;99.90
33715;DHT22;20043;50.998;4.754;2023-06-22T04:22:05;20.90;99.90
33715;DHT22;20043;50.998;4.754;2023-06-22T04:24:35;20.90;99.90
33715;DHT22;20043;50.998;4.754;2023-06-22T04:27:01;21.00;99.90
33715;DHT22;20043;50.998;4.754;2023-06-22T04:29:31;21.00;99.90
33715;DHT22;20043;50.998;4.754;2023-06-22T04:31:57;21.00;99.90
33715;DHT22;20043;50.998;4.754;2023-06-22T04:34:24;20.90;99.90
33715;DHT22;20043;50.998;4.754;2023-06-22T04:36:52;20.90;99.90
33715;DHT22;20043;50.998;4.754;2023-06-22T04:39:24;21.00;99.90
33715;DHT22;20043;50.998;4.754;2023-06-22T04:41:50;20.90;99.90
33715;DHT22;20043;50.998;4.754;2023-06-22T04:44:19;21.10;99.90
33715;DHT22;20043;50.998;4.754;2023-06-22T04:46:58;21.20;99.90
33715;DHT22;20043;50.998;4.754;2023-06-22T04:49:29;21.10;99.90
33715;DHT22;20043;50.998;4.754;2023-06-22T04:51:59;21.10;99.90
33715;DHT22;20043;50.998;4.754;2023-06-22T04:54:25;21.00;99.90
33715;DHT22;20043;50.998;4.754;2023-06-22T04:56:51;21.10;99.90
33715;DHT22;20043;50.998;4.754;2023-06-22T04:59:30;21.10;99.90
33715;DHT22;20043;50.998;4.754;2023-06-22T05:01:56;21.10;99.90
33715;DHT22;20043;50.998;4.754;2023-06-22T05:04:23;21.10;99.90
33715;DHT22;20043;50.998;4.754;2023-06-22T05:06:50;21.20;99.90
33715;DHT22;20043;50.998;4.754;2023-06-22T05:09:16;21.40;99.90
33715;DHT22;20043;50.998;4.754;2023-06-22T05:11:43;21.40;99.90
33715;DHT22;20043;50.998;4.754;2023-06-22T05:14:08;21.60;99.90
33715;DHT22;20043;50.998;4.754;2023-06-22T05:16:34;21.60;99.90
33715;DHT22;20043;50.998;4.754;2023-06-22T05:19:00;21.50;99.90
33715;DHT22;20043;50.998;4.754;2023-06-22T05:21:28;21.60;99.90
33715;DHT22;20043;50.998;4.754;2023-06-22T05:23:54;21.60;99.90
33715;DHT22;20043;50.998;4.754;2023-06-22T05:26:21;21.60;99.90
33715;DHT22;20043;50.998;4.754;2023-06-22T05:28:48;21.60;99.90
33715;DHT22;20043;50.998;4.754;2023-06-22T05:31:14;21.60;99.90
33715;DHT22;20043;50.998;4.754;2023-06-22T05:33:41;21.60;99.90
33715;DHT22;20043;50.998;4.754;2023-06-22T05:36:06;21.70;99.90
33715;DHT22;20043;50.998;4.754;2023-06-22T05:38:32;21.70;99.90
33715;DHT22;20043;50.998;4.754;2023-06-22T05:40:58;21.80;99.90
33715;DHT22;20043;50.998;4.754;2023-06-22T05:43:23;21.70;99.90
33715;DHT22;20043;50.998;4.754;2023-06-22T05:45:49;21.60;99.90
33715;DHT22;20043;50.998;4.754;2023-06-22T05:48:14;21.60;99.90
33715;DHT22;20043;50.998;4.754;2023-06-22T05:50:40;21.60;99.90
33715;DHT22;20043;50.998;4.754;2023-06-22T05:53:05;21.60;99.90
33715;DHT22;20043;50.998;4.754;2023-06-22T05:55:32;21.50;99.90
33715;DHT22;20043;50.998;4.754;2023-06-22T05:57:58;21.50;99.90
33715;DHT22;20043;50.998;4.754;2023-06-22T06:00:23;21.60;99.90
33715;DHT22;20043;50.998;4.754;2023-06-22T06:02:49;21.80;99.90
33715;DHT22;20043;50.998;4.754;2023-06-22T06:05:15;21.80;99.90
33715;DHT22;20043;50.998;4.754;2023-06-22T06:07:41;21.90;99.90
33715;DHT22;20043;50.998;4.754;2023-06-22T06:10:08;22.00;99.90
33715;DHT22;20043;50.998;4.754;2023-06-22T06:12:33;22.10;99.90
33715;DHT22;20043;50.998;4.754;2023-06-22T06:14:59;22.10;99.90
33715;DHT22;20043;50.998;4.754;2023-06-22T06:17:25;22.30;99.90
33715;DHT22;20043;50.998;4.754;2023-06-22T06:19:50;22.30;99.90
33715;DHT22;20043;50.998;4.754;2023-06-22T06:22:16;22.40;99.90
33715;DHT22;20043;50.998;4.754;2023-06-22T06:24:41;22.40;99.90
33715;DHT22;20043;50.998;4.754;2023-06-22T06:27:07;22.40;99.90
33715;DHT22;20043;50.998;4.754;2023-06-22T06:29:33;22.50;99.90
33715;DHT22;20043;50.998;4.754;2023-06-22T06:31:59;22.50;99.90
33715;DHT22;20043;50.998;4.754;2023-06-22T06:34:24;22.50;99.90
33715;DHT22;20043;50.998;4.754;2023-06-22T06:36:50;22.40;99.90
33715;DHT22;20043;50.998;4.754;2023-06-22T06:39:15;22.50;99.90
33715;DHT22;20043;50.998;4.754;2023-06-22T06:41:41;22.40;99.90
33715;DHT22;20043;50.998;4.754;2023-06-22T06:44:07;22.50;99.90
33715;DHT22;20043;50.998;4.754;2023-06-22T06:46:33;22.50;99.90
33715;DHT22;20043;50.998;4.754;2023-06-22T06:48:58;22.40;99.90
33715;DHT22;20043;50.998;4.754;2023-06-22T06:51:24;22.30;99.90
33715;DHT22;20043;50.998;4.754;2023-06-22T06:53:49;22.30;99.90
33715;DHT22;20043;50.998;4.754;2023-06-22T06:56:16;22.30;99.90
33715;DHT22;20043;50.998;4.754;2023-06-22T06:58:41;22.20;99.90
33715;DHT22;20043;50.998;4.754;2023-06-22T07:01:08;22.30;99.90
33715;DHT22;20043;50.998;4.754;2023-06-22T07:03:33;22.30;99.90
33715;DHT22;20043;50.998;4.754;2023-06-22T07:05:59;22.40;99.90
33715;DHT22;20043;50.998;4.754;2023-06-22T07:08:25;22.60;99.90
33715;DHT22;20043;50.998;4.754;2023-06-22T07:10:52;22.60;99.90
33715;DHT22;20043;50.998;4.754;2023-06-22T07:13:18;22.40;99.90
33715;DHT22;20043;50.998;4.754;2023-06-22T07:15:43;21.90;99.90
33715;DHT22;20043;50.998;4.754;2023-06-22T07:18:09;21.60;99.90
33715;DHT22;20043;50.998;4.754;2023-06-22T07:20:35;21.60;99.90
33715;DHT22;20043;50.998;4.754;2023-06-22T07:23:00;21.70;99.90
33715;DHT22;20043;50.998;4.754;2023-06-22T07:25:26;21.90;99.90
33715;DHT22;20043;50.998;4.754;2023-06-22T07:28:03;21.80;99.90
33715;DHT22;20043;50.998;4.754;2023-06-22T07:30:29;21.60;99.90
33715;DHT22;20043;50.998;4.754;2023-06-22T07:32:56;21.60;99.90
33715;DHT22;20043;50.998;4.754;2023-06-22T07:35:21;21.60;99.90
33715;DHT22;20043;50.998;4.754;2023-06-22T07:37:47;21.60;99.90
33715;DHT22;20043;50.998;4.754;2023-06-22T07:40:13;21.50;99.90
33715;DHT22;20043;50.998;4.754;2023-06-22T07:42:38;21.60;99.90
33715;DHT22;20043;50.998;4.754;2023-06-22T07:45:04;21.70;99.90
33715;DHT22;20043;50.998;4.754;2023-06-22T07:47:31;21.60;99.90
33715;DHT22;20043;50.998;4.754;2023-06-22T07:50:00;21.50;99.90
33715;DHT22;20043;50.998;4.754;2023-06-22T07:52:27;21.60;99.90
33715;DHT22;20043;50.998;4.754;2023-06-22T07:54:53;21.70;99.90
33715;DHT22;20043;50.998;4.754;2023-06-22T07:57:19;21.70;99.90
33715;DHT22;20043;50.998;4.754;2023-06-22T07:59:45;21.80;99.90
33715;DHT22;20043;50.998;4.754;2023-06-22T08:02:11;21.80;99.90
33715;DHT22;20043;50.998;4.754;2023-06-22T08:04:37;21.80;99.90
33715;DHT22;20043;50.998;4.754;2023-06-22T08:07:02;21.70;99.90
33715;DHT22;20043;50.998;4.754;2023-06-22T08:09:30;21.70;99.90
33715;DHT22;20043;50.998;4.754;2023-06-22T08:11:56;21.80;99.90
33715;DHT22;20043;50.998;4.754;2023-06-22T08:14:22;21.90;99.90
33715;DHT22;20043;50.998;4.754;2023-06-22T08:16:48;21.90;99.90
33715;DHT22;20043;50.998;4.754;2023-06-22T08:19:14;21.80;99.90
33715;DHT22;20043;50.998;4.754;2023-06-22T08:21:39;21.60;99.90
33715;DHT22;20043;50.998;4.754;2023-06-22T08:24:05;21.60;99.90
33715;DHT22;20043;50.998;4.754;2023-06-22T08:26:32;21.90;99.90
33715;DHT22;20043;50.998;4.754;2023-06-22T08:29:01;22.20;99.90
33715;DHT22;20043;50.998;4.754;2023-06-22T08:31:27;22.00;99.90
33715;DHT22;20043;50.998;4.754;2023-06-22T08:33:53;22.10;99.90
33715;DHT22;20043;50.998;4.754;2023-06-22T08:36:18;22.10;99.90
33715;DHT22;20043;50.998;4.754;2023-06-22T08:38:44;22.30;99.90
33715;DHT22;20043;50.998;4.754;2023-06-22T08:41:10;22.30;99.90
33715;DHT22;20043;50.998;4.754;2023-06-22T08:43:36;22.40;99.90
33715;DHT22;20043;50.998;4.754;2023-06-22T08:46:08;22.40;99.90
33715;DHT22;20043;50.998;4.754;2023-06-22T08:48:33;22.30;99.90
33715;DHT22;20043;50.998;4.754;2023-06-22T08:50:59;22.40;99.90
33715;DHT22;20043;50.998;4.754;2023-06-22T08:53:24;22.40;99.90
33715;DHT22;20043;50.998;4.754;2023-06-22T08:55:50;22.30;99.90
33715;DHT22;20043;50.998;4.754;2023-06-22T08:58:16;22.30;99.90
33715;DHT22;20043;50.998;4.754;2023-06-22T09:00:41;22.20;99.90
33715;DHT22;20043;50.998;4.754;2023-06-22T09:03:07;22.20;99.90
33715;DHT22;20043;50.998;4.754;2023-06-22T09:05:33;22.20;99.90
33715;DHT22;20043;50.998;4.754;2023-06-22T09:07:58;22.30;99.90
33715;DHT22;20043;50.998;4.754;2023-06-22T09:10:25;22.40;99.90
33715;DHT22;20043;50.998;4.754;2023-06-22T09:12:51;22.60;99.90
33715;DHT22;20043;50.998;4.754;2023-06-22T09:15:16;22.70;99.90
33715;DHT22;20043;50.998;4.754;2023-06-22T09:17:42;22.80;99.90
33715;DHT22;20043;50.998;4.754;2023-06-22T09:20:09;22.60;99.90
33715;DHT22;20043;50.998;4.754;2023-06-22T09:22:36;22.60;99.90
33715;DHT22;20043;50.998;4.754;2023-06-22T09:25:02;22.40;99.90
33715;DHT22;20043;50.998;4.754;2023-06-22T09:27:28;22.30;99.90
33715;DHT22;20043;50.998;4.754;2023-06-22T09:29:54;22.40;99.90
33715;DHT22;20043;50.998;4.754;2023-06-22T09:32:20;22.30;99.90
33715;DHT22;20043;50.998;4.754;2023-06-22T09:34:45;22.20;99.90
33715;DHT22;20043;50.998;4.754;2023-06-22T09:37:11;22.30;99.90
33715;DHT22;20043;50.998;4.754;2023-06-22T09:39:36;22.40;99.90
33715;DHT22;20043;50.998;4.754;2023-06-22T09:42:02;22.30;99.90
33715;DHT22;20043;50.998;4.754;2023-06-22T09:44:28;22.10;99.90
33715;DHT22;20043;50.998;4.754;2023-06-22T09:46:54;22.00;99.90
33715;DHT22;20043;50.998;4.754;2023-06-22T09:49:19;21.90;99.90
33715;DHT22;20043;50.998;4.754;2023-06-22T09:51:45;21.80;99.90
33715;DHT22;20043;50.998;4.754;2023-06-22T09:54:10;21.70;99.90
33715;DHT22;20043;50.998;4.754;2023-06-22T09:56:43;21.70;99.90
33715;DHT22;20043;50.998;4.754;2023-06-22T09:59:09;21.80;99.90
33715;DHT22;20043;50.998;4.754;2023-06-22T10:01:34;21.80;99.90
33715;DHT22;20043;50.998;4.754;2023-06-22T10:04:02;21.70;99.90
33715;DHT22;20043;50.998;4.754;2023-06-22T10:06:28;21.60;99.90
33715;DHT22;20043;50.998;4.754;2023-06-22T10:08:53;21.40;99.90
33715;DHT22;20043;50.998;4.754;2023-06-22T10:11:19;21.40;99.90
33715;DHT22;20043;50.998;4.754;2023-06-22T10:13:45;21.20;99.90
33715;DHT22;20043;50.998;4.754;2023-06-22T10:16:10;21.10;99.90
33715;DHT22;20043;50.998;4.754;2023-06-22T10:18:36;20.90;99.90
33715;DHT22;20043;50.998;4.754;2023-06-22T10:21:02;20.70;99.90
33715;DHT22;20043;50.998;4.754;2023-06-22T10:23:27;20.60;99.90
33715;DHT22;20043;50.998;4.754;2023-06-22T10:25:53;20.60;99.90
33715;DHT22;20043;50.998;4.754;2023-06-22T10:28:19;20.40;99.90
33715;DHT22;20043;50.998;4.754;2023-06-22T10:30:44;20.40;99.90
33715;DHT22;20043;50.998;4.754;2023-06-22T10:33:11;20.20;99.90
33715;DHT22;20043;50.998;4.754;2023-06-22T10:35:36;20.10;99.90
33715;DHT22;20043;50.998;4.754;2023-06-22T10:38:06;20.10;99.90
33715;DHT22;20043;50.998;4.754;2023-06-22T10:40:31;20.00;99.90
33715;DHT22;20043;50.998;4.754;2023-06-22T10:42:57;20.00;99.90
33715;DHT22;20043;50.998;4.754;2023-06-22T10:45:23;20.00;99.90
33715;DHT22;20043;50.998;4.754;2023-06-22T10:47:48;20.10;99.90
33715;DHT22;20043;50.998;4.754;2023-06-22T10:50:14;20.20;99.90
33715;DHT22;20043;50.998;4.754;2023-06-22T10:52:40;20.20;99.90
33715;DHT22;20043;50.998;4.754;2023-06-22T10:55:08;20.30;99.90
33715;DHT22;20043;50.998;4.754;2023-06-22T10:57:33;20.30;99.90
33715;DHT22;20043;50.998;4.754;2023-06-22T10:59:59;20.30;99.90
33715;DHT22;20043;50.998;4.754;2023-06-22T11:02:25;20.30;99.90
33715;DHT22;20043;50.998;4.754;2023-06-22T11:04:51;20.30;99.90
33715;DHT22;20043;50.998;4.754;2023-06-22T11:07:16;20.30;99.90
33715;DHT22;20043;50.998;4.754;2023-06-22T11:09:45;20.40;99.90
33715;DHT22;20043;50.998;4.754;2023-06-22T11:12:11;20.50;99.90
33715;DHT22;20043;50.998;4.754;2023-06-22T11:14:38;20.60;99.90
33715;DHT22;20043;50.998;4.754;2023-06-22T11:17:04;20.60;99.90
33715;DHT22;20043;50.998;4.754;2023-06-22T11:19:29;20.80;99.90
33715;DHT22;20043;50.998;4.754;2023-06-22T11:21:55;20.90;99.90
33715;DHT22;20043;50.998;4.754;2023-06-22T11:24:21;21.00;99.90
33715;DHT22;20043;50.998;4.754;2023-06-22T11:26:46;21.00;99.90
33715;DHT22;20043;50.998;4.754;2023-06-22T11:29:12;21.20;99.90
33715;DHT22;20043;50.998;4.754;2023-06-22T11:31:37;21.20;99.90
33715;DHT22;20043;50.998;4.754;2023-06-22T11:34:03;21.20;99.90
33715;DHT22;20043;50.998;4.754;2023-06-22T11:36:29;21.20;99.90
33715;DHT22;20043;50.998;4.754;2023-06-22T11:38:58;21.20;99.90
33715;DHT22;20043;50.998;4.754;2023-06-22T11:41:23;21.30;99.90
33715;DHT22;20043;50.998;4.754;2023-06-22T11:43:49;21.30;99.90
33715;DHT22;20043;50.998;4.754;2023-06-22T11:46:15;21.20;99.90
33715;DHT22;20043;50.998;4.754;2023-06-22T11:48:40;21.20;99.90
33715;DHT22;20043;50.998;4.754;2023-06-22T11:51:06;21.00;99.90
33715;DHT22;20043;50.998;4.754;2023-06-22T11:53:38;21.00;99.90
33715;DHT22;20043;50.998;4.754;2023-06-22T11:56:03;20.80;99.90
33715;DHT22;20043;50.998;4.754;2023-06-22T11:58:29;20.60;99.90
33715;DHT22;20043;50.998;4.754;2023-06-22T12:00:54;20.60;99.90
33715;DHT22;20043;50.998;4.754;2023-06-22T12:03:20;20.30;99.90
33715;DHT22;20043;50.998;4.754;2023-06-22T12:05:50;20.40;99.90
33715;DHT22;20043;50.998;4.754;2023-06-22T12:08:17;20.20;99.90
33715;DHT22;20043;50.998;4.754;2023-06-22T12:10:43;20.20;99.90
33715;DHT22;20043;50.998;4.754;2023-06-22T12:13:09;20.40;99.90
33715;DHT22;20043;50.998;4.754;2023-06-22T12:15:35;20.50;99.90
33715;DHT22;20043;50.998;4.754;2023-06-22T12:18:00;20.60;99.90
33715;DHT22;20043;50.998;4.754;2023-06-22T12:20:26;20.70;99.90
33715;DHT22;20043;50.998;4.754;2023-06-22T12:22:52;20.70;99.90
33715;DHT22;20043;50.998;4.754;2023-06-22T12:25:19;20.60;99.90
33715;DHT22;20043;50.998;4.754;2023-06-22T12:27:45;20.60;99.90
33715;DHT22;20043;50.998;4.754;2023-06-22T12:30:10;20.30;99.90
33715;DHT22;20043;50.998;4.754;2023-06-22T12:32:36;20.10;99.90
33715;DHT22;20043;50.998;4.754;2023-06-22T12:35:01;20.10;99.90
33715;DHT22;20043;50.998;4.754;2023-06-22T12:37:27;20.00;99.90
33715;DHT22;20043;50.998;4.754;2023-06-22T12:39:54;20.20;99.90
33715;DHT22;20043;50.998;4.754;2023-06-22T12:42:20;20.30;99.90
33715;DHT22;20043;50.998;4.754;2023-06-22T12:44:46;20.40;99.90
33715;DHT22;20043;50.998;4.754;2023-06-22T12:47:12;20.50;99.90
33715;DHT22;20043;50.998;4.754;2023-06-22T12:49:38;20.50;99.90
33715;DHT22;20043;50.998;4.754;2023-06-22T12:52:09;20.30;99.90
33715;DHT22;20043;50.998;4.754;2023-06-22T12:54:35;20.20;99.90
33715;DHT22;20043;50.998;4.754;2023-06-22T12:57:01;20.30;99.90
33715;DHT22;20043;50.998;4.754;2023-06-22T12:59:27;20.40;99.90
33715;DHT22;20043;50.998;4.754;2023-06-22T13:01:52;20.30;99.90
33715;DHT22;20043;50.998;4.754;2023-06-22T13:04:18;20.40;99.90
33715;DHT22;20043;50.998;4.754;2023-06-22T13:06:45;20.50;99.90
33715;DHT22;20043;50.998;4.754;2023-06-22T13:09:14;20.60;99.90
33715;DHT22;20043;50.998;4.754;2023-06-22T13:11:39;20.70;99.90
33715;DHT22;20043;50.998;4.754;2023-06-22T13:14:05;20.80;99.90
33715;DHT22;20043;50.998;4.754;2023-06-22T13:16:31;20.80;99.90
33715;DHT22;20043;50.998;4.754;2023-06-22T13:18:56;20.80;99.90
33715;DHT22;20043;50.998;4.754;2023-06-22T13:21:22;20.80;99.90
33715;DHT22;20043;50.998;4.754;2023-06-22T13:23:47;20.80;99.90
33715;DHT22;20043;50.998;4.754;2023-06-22T13:26:13;20.80;99.90
33715;DHT22;20043;50.998;4.754;2023-06-22T13:28:39;20.90;99.90
33715;DHT22;20043;50.998;4.754;2023-06-22T13:31:04;20.80;99.90
33715;DHT22;20043;50.998;4.754;2023-06-22T13:33:30;21.00;99.90
33715;DHT22;20043;50.998;4.754;2023-06-22T13:35:56;21.00;99.90
33715;DHT22;20043;50.998;4.754;2023-06-22T13:38:21;20.90;99.90
33715;DHT22;20043;50.998;4.754;2023-06-22T13:40:48;20.70;99.90
33715;DHT22;20043;50.998;4.754;2023-06-22T13:43:14;20.80;99.90
33715;DHT22;20043;50.998;4.754;2023-06-22T13:45:40;20.70;99.90
33715;DHT22;20043;50.998;4.754;2023-06-22T13:48:06;20.60;99.90
33715;DHT22;20043;50.998;4.754;2023-06-22T13:50:31;20.80;99.90
33715;DHT22;20043;50.998;4.754;2023-06-22T13:52:57;20.70;99.90
33715;DHT22;20043;50.998;4.754;2023-06-22T13:55:23;20.80;99.90
33715;DHT22;20043;50.998;4.754;2023-06-22T13:57:49;20.80;99.90
33715;DHT22;20043;50.998;4.754;2023-06-22T14:00:15;20.70;99.90
33715;DHT22;20043;50.998;4.754;2023-06-22T14:02:40;20.70;99.90
33715;DHT22;20043;50.998;4.754;2023-06-22T14:05:07;20.80;99.90
33715;DHT22;20043;50.998;4.754;2023-06-22T14:07:33;20.80;99.90
33715;DHT22;20043;50.998;4.754;2023-06-22T14:09:59;20.80;99.90
33715;DHT22;20043;50.998;4.754;2023-06-22T14:12:25;20.80;99.90
33715;DHT22;20043;50.998;4.754;2023-06-22T14:14:51;20.70;99.90
33715;DHT22;20043;50.998;4.754;2023-06-22T14:17:17;20.80;99.90
33715;DHT22;20043;50.998;4.754;2023-06-22T14:19:49;20.60;99.90
33715;DHT22;20043;50.998;4.754;2023-06-22T14:22:14;20.60;99.90
33715;DHT22;20043;50.998;4.754;2023-06-22T14:24:40;20.60;99.90
33715;DHT22;20043;50.998;4.754;2023-06-22T14:27:06;20.70;99.90
33715;DHT22;20043;50.998;4.754;2023-06-22T14:29:34;20.70;99.90
33715;DHT22;20043;50.998;4.754;2023-06-22T14:31:59;20.60;99.90
33715;DHT22;20043;50.998;4.754;2023-06-22T14:34:25;20.60;99.90
33715;DHT22;20043;50.998;4.754;2023-06-22T14:36:51;20.70;99.90
33715;DHT22;20043;50.998;4.754;2023-06-22T14:39:16;20.70;99.90
33715;DHT22;20043;50.998;4.754;2023-06-22T14:41:42;20.80;99.90
33715;DHT22;20043;50.998;4.754;2023-06-22T14:44:07;20.60;99.90
33715;DHT22;20043;50.998;4.754;2023-06-22T14:46:33;20.70;99.90
33715;DHT22;20043;50.998;4.754;2023-06-22T14:48:59;20.60;99.90
33715;DHT22;20043;50.998;4.754;2023-06-22T14:51:24;20.70;99.90
33715;DHT22;20043;50.998;4.754;2023-06-22T14:53:50;20.70;99.90
33715;DHT22;20043;50.998;4.754;2023-06-22T14:56:16;20.60;99.90
33715;DHT22;20043;50.998;4.754;2023-06-22T14:58:42;20.60;99.90
33715;DHT22;20043;50.998;4.754;2023-06-22T15:01:11;20.70;99.90
33715;DHT22;20043;50.998;4.754;2023-06-22T15:03:37;20.80;99.90
33715;DHT22;20043;50.998;4.754;2023-06-22T15:06:03;20.70;99.90
33715;DHT22;20043;50.998;4.754;2023-06-22T15:08:29;20.70;99.90
33715;DHT22;20043;50.998;4.754;2023-06-22T15:10:57;20.60;99.90
33715;DHT22;20043;50.998;4.754;2023-06-22T15:13:23;20.60;99.90
33715;DHT22;20043;50.998;4.754;2023-06-22T15:15:50;20.60;99.90
33715;DHT22;20043;50.998;4.754;2023-06-22T15:18:16;20.60;99.90
33715;DHT22;20043;50.998;4.754;2023-06-22T15:20:42;20.70;99.90
33715;DHT22;20043;50.998;4.754;2023-06-22T15:23:13;20.70;99.90
33715;DHT22;20043;50.998;4.754;2023-06-22T15:25:39;20.60;99.90
33715;DHT22;20043;50.998;4.754;2023-06-22T15:28:05;20.70;99.90